Time;durP1;ratioP1;P1;durP2;ratioP2;P2;SDS_P1;SDS_P2;PMS_P1;PMS_P2;Temp;Humidity;BMP_temperature;BMP_pressure;BME280_temperature;BME280_humidity;BME280_pressure;Samples;Min_cycle;Max_cycle;Signal;HPM_P1;HPM_P2
2022/10/27 00:01:33;;;;;;;;;;;;;;;;;;;;;
2022/10/27 00:04:09;;;;;;;;;;;;;;;;;;;;;
2022/10/27 00:06:44;;;;;;;;;;;;;;;;;;;;;
2022/10/27 00:09:20;;;;;;;;;;;;;;;;;;;;;
2022/10/27 00:11:56;;;;;;;;;;;;;;;;;;;;;
2022/10/27 00:14:21;;;;;;;;;4.33;4.33;;;;;18.58;62.57;101538.41;6244647;22;75514;-75
2022/10/27 00:16:53;;;;;;;;;3.00;3.00;;;;;18.68;62.92;101563.06;6244943;22;45384;-75
2022/10/27 00:19:20;;;;;;;;;2.00;2.00;;;;;18.67;63.05;101566.66;6217789;22;45538;-75
2022/10/27 00:21:45;;;;;;;;;1.67;1.67;;;;;18.59;62.91;101555.28;6244811;22;45550;-74
2022/10/27 00:24:10;;;;;;;;;2.00;2.00;;;;;18.63;62.84;101563.19;6217026;22;47356;-75
2022/10/27 00:26:36;;;;;;;;;2.33;2.33;;;;;18.64;62.88;101572.06;6245156;22;45470;-75
2022/10/27 00:29:01;;;;;;;;;2.00;2.00;;;;;18.49;62.93;101550.16;6246400;22;45292;-75
2022/10/27 00:31:26;;;;;;;;;5.00;4.00;;;;;18.46;62.88;101552.91;6248034;22;45234;-75
2022/10/27 00:33:52;;;;;;;;;4.00;3.00;;;;;18.43;63.05;101560.09;6248282;22;46493;-75
2022/10/27 00:36:22;;;;;;;;;4.00;3.00;;;;;18.41;63.16;101544.13;6248052;22;45212;-74
2022/10/27 00:38:48;;;;;;;;;3.33;3.00;;;;;18.50;62.89;101559.94;6247889;22;45338;-75
2022/10/27 00:41:31;;;;;;;;;3.00;3.00;;;;;18.37;63.45;101534.47;6247932;22;45358;-75
2022/10/27 00:43:59;;;;;;;;;3.67;3.00;;;;;18.41;63.21;101556.59;6248029;22;46349;-75
2022/10/27 00:46:39;;;;;;;;;3.00;3.00;;;;;18.36;62.95;101555.81;6220149;22;45388;-74
2022/10/27 00:49:11;;;;;;;;;3.67;3.67;;;;;18.32;63.36;101554.16;6248930;22;45297;-74
2022/10/27 00:51:44;;;;;;;;;4.00;4.00;;;;;18.34;63.16;101569.19;6248733;22;45184;-74
2022/10/27 00:54:12;;;;;;;;;3.00;3.00;;;;;18.15;63.74;101539.41;6247589;22;45590;-75
2022/10/27 00:56:38;;;;;;;;;2.00;2.00;;;;;18.18;63.56;101541.13;6248112;22;45390;-75
2022/10/27 00:59:04;;;;;;;;;3.00;3.00;;;;;18.14;63.66;101537.66;6247782;22;45530;-75
2022/10/27 01:01:31;;;;;;;;;3.00;3.00;;;;;18.23;63.68;101553.44;6248077;22;45280;-75
2022/10/27 01:03:56;;;;;;;;;5.00;4.00;;;;;18.11;63.71;101537.72;6247591;22;45537;-75
2022/10/27 01:06:23;;;;;;;;;3.00;3.00;;;;;18.09;63.82;101534.19;6247680;22;45263;-77
2022/10/27 01:08:50;;;;;;;;;4.67;4.67;;;;;18.10;63.56;101535.09;6247908;22;45339;-76
2022/10/27 01:11:15;;;;;;;;;5.00;5.00;;;;;18.03;63.66;101534.34;6247691;22;45244;-77
2022/10/27 01:13:41;;;;;;;;;3.00;3.00;;;;;18.00;63.62;101537.09;6247644;22;45328;-75
2022/10/27 01:16:25;;;;;;;;;3.33;3.33;;;;;18.07;63.88;101538.72;6248006;22;45212;-76
2022/10/27 01:19:04;;;;;;;;;3.00;3.00;;;;;17.95;64.12;101533.63;6247981;22;45161;-77
2022/10/27 01:21:51;;;;;;;;;3.33;3.33;;;;;17.99;63.92;101544.22;6247494;22;45356;-77
2022/10/27 01:24:44;;;;;;;;;5.00;3.33;;;;;17.96;64.22;101538.03;6247633;22;46354;-75
2022/10/27 01:27:48;;;;;;;;;4.67;3.67;;;;;17.93;64.35;101536.31;6247822;22;45259;-77
2022/10/27 01:30:18;;;;;;;;;2.33;2.33;;;;;17.81;64.13;101515.28;6220298;22;45324;-77
2022/10/27 01:33:18;;;;;;;;;4.67;3.33;;;;;17.88;64.22;101535.53;6247766;22;45394;-77
2022/10/27 01:35:47;;;;;;;;;2.67;2.67;;;;;17.86;64.25;101526.72;6247435;22;46517;-77
2022/10/27 01:38:31;;;;;;;;;5.33;3.00;;;;;17.84;64.61;101525.88;6247583;22;45318;-77
2022/10/27 01:41:18;;;;;;;;;2.67;2.67;;;;;17.80;64.43;101521.50;6219829;22;45377;-76
2022/10/27 01:43:48;;;;;;;;;4.67;3.67;;;;;17.68;64.79;101505.78;6219987;22;45499;-77
2022/10/27 01:46:15;;;;;;;;;2.00;2.00;;;;;17.69;64.67;101512.84;6247061;22;45165;-77
2022/10/27 01:48:40;;;;;;;;;1.33;1.33;;;;;17.64;64.94;101513.84;6247821;22;45341;-77
2022/10/27 01:51:06;;;;;;;;;2.33;2.33;;;;;17.64;65.10;101526.25;6247511;22;45299;-77
2022/10/27 01:53:38;;;;;;;;;4.67;4.33;;;;;17.58;64.85;101510.41;6247783;22;45346;-77
2022/10/27 01:56:04;;;;;;;;;7.00;4.00;;;;;17.67;65.21;101528.88;6219912;22;47128;-77
2022/10/27 01:58:44;;;;;;;;;7.00;6.00;;;;;17.48;64.97;101495.50;6247747;22;45390;-76
2022/10/27 02:01:42;;;;;;;;;4.00;2.67;;;;;17.66;65.31;101526.22;6248252;22;45170;-76
2022/10/27 02:04:13;;;;;;;;;3.00;3.00;;;;;17.61;65.34;101513.91;6247797;22;45113;-77
2022/10/27 02:06:52;;;;;;;;;3.67;2.00;;;;;17.65;65.13;101520.03;6219463;22;47374;-77
2022/10/27 02:09:42;;;;;;;;;1.00;1.00;;;;;17.59;65.09;101502.41;6247466;22;45148;-77
2022/10/27 02:12:16;;;;;;;;;3.33;3.33;;;;;17.56;65.23;101494.47;6219501;22;45139;-76
2022/10/27 02:14:44;;;;;;;;;3.33;2.33;;;;;17.55;65.16;101486.50;6219501;22;45289;-77
2022/10/27 02:17:12;;;;;;;;;4.00;2.67;;;;;17.46;65.48;101468.94;6247782;22;46432;-76
2022/10/27 02:19:41;;;;;;;;;2.00;2.00;;;;;17.44;65.35;101477.88;6219655;22;45178;-77
2022/10/27 02:22:08;;;;;;;;;2.00;2.00;;;;;17.52;65.41;101500.75;6247273;22;45406;-77
2022/10/27 02:24:34;;;;;;;;;3.00;2.00;;;;;17.52;65.31;101495.44;6219656;22;45780;-76
2022/10/27 02:27:13;;;;;;;;;4.33;3.00;;;;;17.57;65.50;101496.22;6219402;22;46388;-77
2022/10/27 02:29:46;;;;;;;;;4.00;2.00;;;;;17.58;65.60;101487.31;6219799;22;46040;-77
2022/10/27 02:32:17;;;;;;;;;5.00;2.00;;;;;17.56;65.41;101491.81;6219909;22;45309;-77
2022/10/27 02:34:44;;;;;;;;;4.00;3.67;;;;;17.54;65.43;101482.97;6247242;22;45298;-77
2022/10/27 02:37:17;;;;;;;;;3.00;3.00;;;;;17.56;65.31;101482.91;6247061;22;45517;-77
2022/10/27 02:39:42;;;;;;;;;2.00;2.00;;;;;17.49;65.42;101462.69;6247154;22;45263;-75
2022/10/27 02:42:08;;;;;;;;;2.00;2.00;;;;;17.55;65.50;101467.88;6247494;22;45682;-76
2022/10/27 02:44:33;;;;;;;;;3.00;3.00;;;;;17.45;64.97;101453.84;6247251;22;45252;-76
2022/10/27 02:46:58;;;;;;;;;4.00;4.00;;;;;17.51;65.29;101475.06;6219314;22;46263;-77
2022/10/27 02:49:24;;;;;;;;;4.67;4.67;;;;;17.54;65.37;101460.81;6247213;22;45676;-76
2022/10/27 02:51:49;;;;;;;;;3.67;3.00;;;;;17.60;65.17;101482.84;6247188;22;45216;-77
2022/10/27 02:54:15;;;;;;;;;6.00;4.33;;;;;17.49;64.89;101473.31;6247207;22;45110;-76
2022/10/27 02:56:40;;;;;;;;;4.00;3.00;;;;;17.46;65.10;101465.41;6247161;22;45205;-76
2022/10/27 02:59:05;;;;;;;;;2.67;2.67;;;;;17.56;64.84;101493.56;6247311;22;45081;-77
2022/10/27 03:01:31;;;;;;;;;2.00;2.00;;;;;17.54;65.19;101482.97;6247466;22;45176;-76
2022/10/27 03:03:56;;;;;;;;;3.67;3.67;;;;;17.60;65.14;101496.16;6247323;22;45192;-76
2022/10/27 03:06:21;;;;;;;;;5.00;4.00;;;;;17.52;64.81;101484.78;6219515;22;48279;-76
2022/10/27 03:08:47;;;;;;;;;3.33;3.00;;;;;17.55;64.69;101478.53;6246788;22;45127;-76
2022/10/27 03:11:12;;;;;;;;;4.33;4.33;;;;;17.50;64.97;101477.72;6246891;22;45179;-76
2022/10/27 03:13:37;;;;;;;;;2.00;2.00;;;;;17.54;64.80;101474.97;6219774;22;45309;-76
2022/10/27 03:16:03;;;;;;;;;3.00;3.00;;;;;17.58;64.84;101489.09;6246995;22;45427;-76
2022/10/27 03:18:28;;;;;;;;;4.00;4.00;;;;;17.65;64.73;101488.06;6246764;22;45113;-76
2022/10/27 03:20:54;;;;;;;;;3.00;2.00;;;;;17.58;64.52;101475.78;6246989;22;45316;-76
2022/10/27 03:23:19;;;;;;;;;3.67;2.00;;;;;17.59;64.27;101483.75;6246897;22;45394;-76
2022/10/27 03:25:44;;;;;;;;;2.33;2.33;;;;;17.58;64.55;101479.31;6246866;22;46163;-76
2022/10/27 03:28:11;;;;;;;;;5.33;3.00;;;;;17.55;64.30;101481.19;6219235;22;45383;-76
2022/10/27 03:30:37;;;;;;;;;2.00;2.00;;;;;17.59;64.70;101489.09;6247292;22;45168;-76
2022/10/27 03:33:02;;;;;;;;;3.67;3.00;;;;;17.61;64.45;101492.59;6246646;22;45395;-76
2022/10/27 03:35:28;;;;;;;;;3.00;2.00;;;;;17.62;64.19;101498.78;6218944;22;47957;-76
2022/10/27 03:37:58;;;;;;;;;5.00;5.00;;;;;17.51;64.16;101479.47;6219782;22;45324;-76
2022/10/27 03:40:25;;;;;;;;;2.00;2.00;;;;;17.49;64.26;101468.88;6248126;22;45181;-75
2022/10/27 03:42:52;;;;;;;;;4.00;3.00;;;;;17.51;64.55;101483.03;6248055;22;45256;-77
2022/10/27 03:45:18;;;;;;;;;5.00;5.00;;;;;17.44;64.39;101461.91;6248351;22;46347;-77
2022/10/27 03:47:43;;;;;;;;;3.00;2.33;;;;;17.46;64.33;101473.41;6248120;22;45315;-76
2022/10/27 03:50:09;;;;;;;;;5.00;5.00;;;;;17.42;64.51;101461.91;6248532;22;45265;-76
2022/10/27 03:52:34;;;;;;;;;3.00;3.00;;;;;17.46;64.28;101476.94;6248288;22;46000;-76
2022/10/27 03:54:59;;;;;;;;;1.67;1.67;;;;;17.43;64.30;101471.66;6248132;22;46387;-76
2022/10/27 03:57:25;;;;;;;;;3.00;2.67;;;;;17.47;64.20;101472.47;6220881;22;45238;-76
2022/10/27 03:59:50;;;;;;;;;1.00;1.00;;;;;17.40;64.68;101464.63;6221090;22;45239;-76
2022/10/27 04:02:16;;;;;;;;;3.00;3.00;;;;;17.38;64.55;101469.09;6248329;22;45106;-76
2022/10/27 04:04:42;;;;;;;;;4.33;3.00;;;;;17.40;64.75;101474.38;6247878;22;46400;-76
2022/10/27 04:07:07;;;;;;;;;4.33;4.00;;;;;17.34;64.59;101470.06;6247889;22;45214;-77
2022/10/27 04:09:33;;;;;;;;;2.33;1.33;;;;;17.41;64.38;101487.66;6248297;22;45935;-76
2022/10/27 04:11:58;;;;;;;;;2.00;1.00;;;;;17.28;64.52;101478.16;6247600;22;45640;-76
2022/10/27 04:14:24;;;;;;;;;2.33;2.33;;;;;17.33;64.48;101483.41;6220543;22;47902;-76
2022/10/27 04:16:50;;;;;;;;;3.00;3.00;;;;;17.24;64.63;101467.59;6247887;22;45252;-76
2022/10/27 04:19:19;;;;;;;;;3.67;2.33;;;;;17.31;64.38;101471.91;6220758;22;45415;-76
2022/10/27 04:21:45;;;;;;;;;4.33;3.67;;;;;17.34;64.50;101487.81;6220335;22;45482;-76
2022/10/27 04:24:10;;;;;;;;;2.67;2.00;;;;;17.39;64.82;101485.94;6220538;22;46116;-76
2022/10/27 04:26:36;;;;;;;;;1.67;1.67;;;;;17.44;64.55;101499.16;6248021;22;45109;-76
2022/10/27 04:29:02;;;;;;;;;3.33;3.33;;;;;17.34;64.69;101485.16;6248407;22;45232;-76
2022/10/27 04:31:27;;;;;;;;;4.33;3.33;;;;;17.31;64.64;101475.44;6248150;22;45161;-76
2022/10/27 04:33:52;;;;;;;;;3.33;2.67;;;;;17.31;64.69;101471.91;6248135;22;46006;-76
2022/10/27 04:36:18;;;;;;;;;4.67;3.00;;;;;17.31;64.49;101469.25;6247926;22;45232;-76
2022/10/27 04:38:46;;;;;;;;;3.00;3.00;;;;;17.36;64.23;101468.25;6248139;22;45100;-76
2022/10/27 04:41:12;;;;;;;;;2.33;2.33;;;;;17.28;64.54;101456.88;6247878;22;45272;-76
2022/10/27 04:43:37;;;;;;;;;3.00;2.33;;;;;17.34;64.40;101463.84;6247737;22;45542;-76
2022/10/27 04:46:02;;;;;;;;;3.00;3.00;;;;;17.22;64.29;101449.03;6248011;22;45330;-76
2022/10/27 04:48:28;;;;;;;;;4.67;3.00;;;;;17.24;64.50;101457.84;6248033;22;45766;-76
2022/10/27 04:50:53;;;;;;;;;3.67;3.00;;;;;17.26;64.40;101468.47;6247525;22;45301;-76
2022/10/27 04:53:18;;;;;;;;;4.00;4.00;;;;;17.15;64.46;101450.91;6247921;22;46496;-76
2022/10/27 04:55:44;;;;;;;;;6.00;3.67;;;;;17.17;64.91;101459.75;6247624;22;45380;-76
2022/10/27 04:58:09;;;;;;;;;3.33;3.33;;;;;17.14;64.52;101464.25;6248225;22;45242;-76
2022/10/27 05:00:35;;;;;;;;;4.33;4.00;;;;;17.21;64.56;101473.88;6247738;22;45240;-76
2022/10/27 05:03:00;;;;;;;;;3.33;3.33;;;;;17.11;64.65;101459.88;6247560;22;46283;-76
2022/10/27 05:05:27;;;;;;;;;6.00;3.67;;;;;17.19;64.73;101473.03;6247222;22;45138;-76
2022/10/27 05:07:55;;;;;;;;;3.00;3.00;;;;;17.07;64.74;101459.97;6220663;22;45263;-76
2022/10/27 05:10:21;;;;;;;;;4.00;3.33;;;;;17.08;64.84;101453.72;6245367;22;45465;-76
2022/10/27 05:12:47;;;;;;;;;4.00;3.00;;;;;17.08;64.69;101445.75;6247129;22;45446;-76
2022/10/27 05:15:12;;;;;;;;;5.67;3.67;;;;;17.16;65.07;101460.66;6220431;22;45346;-76
2022/10/27 05:17:38;;;;;;;;;3.67;3.00;;;;;17.12;65.02;101455.44;6248090;22;45372;-76
2022/10/27 05:20:14;;;;;;;;;3.00;3.00;;;;;17.08;64.70;101451.06;6247434;22;45349;-76
2022/10/27 05:22:39;;;;;;;;;4.67;4.67;;;;;17.03;64.90;101445.84;6247737;22;46422;-76
2022/10/27 05:25:06;;;;;;;;;2.00;2.00;;;;;17.00;65.02;101437.03;6247484;22;45096;-76
2022/10/27 05:27:32;;;;;;;;;3.67;3.67;;;;;17.05;65.26;101438.69;6248000;22;45186;-76
2022/10/27 05:29:57;;;;;;;;;3.00;3.00;;;;;16.98;64.87;101435.28;6247699;22;45402;-76
2022/10/27 05:32:23;;;;;;;;;5.00;5.00;;;;;17.03;65.18;101440.53;6247576;22;45260;-76
2022/10/27 05:34:49;;;;;;;;;3.00;3.00;;;;;17.08;64.86;101441.31;6247350;22;45232;-75
2022/10/27 05:37:14;;;;;;;;;2.67;2.67;;;;;17.11;65.16;101449.25;6248173;22;45443;-76
2022/10/27 05:39:39;;;;;;;;;5.67;4.33;;;;;17.12;64.84;101440.34;6247440;22;45422;-76
2022/10/27 05:42:05;;;;;;;;;4.00;3.33;;;;;17.09;64.85;101434.22;6247311;22;45441;-76
2022/10/27 05:44:30;;;;;;;;;3.33;3.00;;;;;17.04;64.75;101415.66;6247299;22;45290;-76
2022/10/27 05:46:55;;;;;;;;;2.00;2.00;;;;;17.24;65.20;101443.66;6247575;22;45356;-76
2022/10/27 05:49:21;;;;;;;;;4.00;3.00;;;;;17.22;64.83;101442.84;6247634;22;45427;-75
2022/10/27 05:51:50;;;;;;;;;4.00;2.67;;;;;17.19;64.98;101433.13;6247353;22;45496;-76
2022/10/27 05:54:15;;;;;;;;;2.67;2.00;;;;;17.18;64.76;101423.38;6247588;22;45316;-76
2022/10/27 05:56:40;;;;;;;;;5.00;5.00;;;;;17.26;64.43;101425.88;6247674;22;45165;-77
2022/10/27 05:59:06;;;;;;;;;5.00;5.00;;;;;17.33;64.49;101439.03;6219551;22;45110;-76
2022/10/27 06:01:32;;;;;;;;;3.67;3.67;;;;;17.25;64.92;101422.34;6246983;22;45126;-76
2022/10/27 06:03:57;;;;;;;;;4.00;3.00;;;;;17.34;64.62;101418.59;6219751;22;45789;-76
2022/10/27 06:06:22;;;;;;;;;5.00;4.00;;;;;17.27;64.74;101409.91;6247622;22;45173;-76
2022/10/27 06:08:48;;;;;;;;;7.67;7.00;;;;;17.33;64.74;101416.88;6247133;22;45327;-76
2022/10/27 06:11:13;;;;;;;;;6.00;5.00;;;;;17.30;64.42;101412.50;6246767;22;46321;-76
2022/10/27 06:13:38;;;;;;;;;5.67;4.00;;;;;17.33;64.69;101415.06;6247306;22;45153;-76
2022/10/27 06:16:04;;;;;;;;;5.00;5.00;;;;;17.38;64.33;101426.50;6219875;22;45284;-75
2022/10/27 06:18:29;;;;;;;;;6.33;3.00;;;;;17.39;64.78;101441.56;6219190;22;45640;-76
2022/10/27 06:20:55;;;;;;;;;6.00;6.00;;;;;17.46;64.67;101438.78;6247209;22;46218;-76
2022/10/27 06:23:20;;;;;;;;;6.00;5.67;;;;;17.40;64.41;101413.16;6247420;22;45247;-76
2022/10/27 06:25:45;;;;;;;;;5.33;5.00;;;;;17.40;64.08;101399.84;6247559;22;45185;-76
2022/10/27 06:28:11;;;;;;;;;5.33;4.33;;;;;17.50;64.57;101401.41;6247193;22;45486;-76
2022/10/27 06:30:36;;;;;;;;;4.67;3.00;;;;;17.42;64.26;101376.72;6247070;22;46426;-77
2022/10/27 06:33:02;;;;;;;;;7.00;5.67;;;;;17.44;64.44;101387.34;6218666;22;45706;-76
2022/10/27 06:35:27;;;;;;;;;6.00;6.00;;;;;17.37;64.37;101378.63;6247022;22;45276;-75
2022/10/27 06:37:53;;;;;;;;;4.00;3.00;;;;;17.40;64.57;101383.88;6247137;22;45341;-77
2022/10/27 06:40:19;;;;;;;;;8.67;7.00;;;;;17.44;64.41;101406.00;6218578;22;47297;-76
2022/10/27 06:42:54;;;;;;;;;11.33;5.67;;;;;17.31;64.41;101376.97;6246801;22;45131;-76
2022/10/27 06:45:19;;;;;;;;;3.67;3.00;;;;;17.37;63.97;101397.25;6246886;22;45220;-76
2022/10/27 06:47:55;;;;;;;;;5.33;4.00;;;;;17.30;64.46;101385.00;6189264;22;45608;-76
2022/10/27 06:50:21;;;;;;;;;4.67;3.67;;;;;17.38;64.46;101389.25;6215987;22;45563;-76
2022/10/27 06:52:46;;;;;;;;;4.00;4.00;;;;;17.29;64.59;101367.25;6188785;22;45139;-76
2022/10/27 06:55:11;;;;;;;;;4.00;4.00;;;;;17.30;64.44;101361.03;6216679;22;45233;-76
2022/10/27 06:57:41;;;;;;;;;4.00;4.00;;;;;17.39;64.42;101375.00;6216203;22;45246;-77
2022/10/27 07:00:08;;;;;;;;;7.33;6.00;;;;;17.44;64.10;101384.69;6188713;22;46389;-76
2022/10/27 07:02:33;;;;;;;;;6.00;6.00;;;;;17.55;64.11;101409.28;6215886;22;45268;-76
2022/10/27 07:04:59;;;;;;;;;7.00;5.00;;;;;17.44;64.22;101390.03;6188494;22;45292;-75
2022/10/27 07:07:24;;;;;;;;;8.00;6.33;;;;;17.50;64.30;101411.19;6188911;22;45404;-76
2022/10/27 07:09:50;;;;;;;;;4.00;4.00;;;;;17.51;64.14;101408.50;6215568;22;45494;-77
2022/10/27 07:12:15;;;;;;;;;5.00;5.00;;;;;17.60;64.10;101415.41;6216511;22;45194;-77
2022/10/27 07:14:40;;;;;;;;;6.00;5.00;;;;;17.69;63.75;101436.47;6190092;22;45266;-76
2022/10/27 07:17:06;;;;;;;;;6.33;6.33;;;;;17.66;63.99;101425.03;6190021;22;45271;-76
2022/10/27 07:19:31;;;;;;;;;9.00;5.00;;;;;17.72;63.73;101439.09;6217016;22;45269;-76
2022/10/27 07:21:56;;;;;;;;;5.00;3.67;;;;;17.77;63.60;101442.50;6217305;22;45185;-76
2022/10/27 07:24:22;;;;;;;;;5.67;5.00;;;;;17.79;63.41;101445.19;6217527;22;45712;-77
2022/10/27 07:26:47;;;;;;;;;4.67;4.00;;;;;17.85;63.33;101459.25;6190001;22;45123;-77
2022/10/27 07:29:12;;;;;;;;;4.33;4.33;;;;;17.94;63.46;101484.81;6217359;22;45565;-78
2022/10/27 07:31:38;;;;;;;;;5.67;4.00;;;;;18.05;63.32;101500.56;6217238;22;45205;-77
2022/10/27 07:34:03;;;;;;;;;9.33;8.00;;;;;18.09;63.10;101475.56;6189836;22;45310;-77
2022/10/27 07:36:29;;;;;;;;;5.67;5.67;;;;;18.05;63.18;101448.13;6217071;22;45133;-78
2022/10/27 07:38:54;;;;;;;;;4.67;4.67;;;;;18.30;62.71;101485.72;6189431;22;48101;-78
2022/10/27 07:41:30;;;;;;;;;4.00;4.00;;;;;18.38;62.97;101490.88;6190001;22;45529;-79
2022/10/27 07:43:55;;;;;;;;;6.00;5.00;;;;;18.45;62.53;101486.28;6186340;22;45411;-77
2022/10/27 07:46:20;;;;;;;;;5.00;5.00;;;;;18.42;62.45;101465.91;6189555;22;45912;-77
2022/10/27 07:48:46;;;;;;;;;7.00;4.67;;;;;18.45;61.98;101460.50;6216521;22;46170;-77
2022/10/27 07:51:11;;;;;;;;;7.00;7.00;;;;;18.44;61.81;101447.19;6216712;22;45564;-77
2022/10/27 07:53:37;;;;;;;;;5.00;4.33;;;;;18.56;61.79;101459.34;6189522;22;45849;-77
2022/10/27 07:56:02;;;;;;;;;6.00;4.67;;;;;18.52;62.21;101455.88;6189403;22;45503;-76
2022/10/27 07:58:28;;;;;;;;;7.00;7.00;;;;;18.60;61.63;101488.56;6216931;22;46248;-77
2022/10/27 08:00:53;;;;;;;;;8.00;7.00;;;;;18.62;61.66;101494.72;6216541;22;45404;-77
2022/10/27 08:03:21;;;;;;;;;6.00;5.00;;;;;18.61;61.75;101471.66;6189573;22;45365;-76
2022/10/27 08:05:47;;;;;;;;;5.00;5.00;;;;;18.59;61.57;101467.28;6188877;22;45453;-76
2022/10/27 08:08:14;;;;;;;;;5.33;5.00;;;;;18.65;61.37;101464.44;6188816;22;46234;-76
2022/10/27 08:10:40;;;;;;;;;6.00;6.00;;;;;18.61;61.38;101449.44;6188609;22;45119;-77
2022/10/27 08:13:07;;;;;;;;;4.67;4.67;;;;;18.73;61.01;101459.78;6216501;22;45331;-76
2022/10/27 08:15:34;;;;;;;;;7.00;4.33;;;;;18.72;61.17;101461.59;6189364;22;45474;-76
2022/10/27 08:18:01;;;;;;;;;8.00;7.33;;;;;18.84;61.29;101479.06;6189650;22;47123;-76
2022/10/27 08:20:30;;;;;;;;;6.00;6.00;;;;;18.77;60.79;101463.31;6189379;22;45199;-76
2022/10/27 08:22:56;;;;;;;;;6.33;5.00;;;;;18.75;60.74;101465.13;6215747;22;45226;-75
2022/10/27 08:25:22;;;;;;;;;5.00;5.00;;;;;18.80;61.05;101479.22;6189587;22;45567;-76
2022/10/27 08:27:47;;;;;;;;;5.33;4.33;;;;;18.77;61.17;101472.19;6216362;22;46200;-75
2022/10/27 08:30:12;;;;;;;;;6.33;6.33;;;;;18.82;60.74;101477.38;6216672;22;45327;-76
2022/10/27 08:32:38;;;;;;;;;5.67;5.67;;;;;18.81;60.43;101470.28;6216839;22;45328;-75
2022/10/27 08:35:04;;;;;;;;;7.33;7.33;;;;;18.80;60.58;101473.88;6189235;22;45369;-76
2022/10/27 08:37:32;;;;;;;;;7.00;6.00;;;;;18.88;60.70;101482.56;6188290;22;48210;-75
2022/10/27 08:39:57;;;;;;;;;6.00;4.00;;;;;18.88;60.44;101482.56;6216571;22;45224;-76
2022/10/27 08:43:13;;;;;;;;;6.00;6.00;;;;;18.92;60.97;101498.47;6216756;22;45439;-75
2022/10/27 08:45:53;;;;;;;;;7.00;6.00;;;;;18.95;60.63;101497.47;6189828;22;45199;-76
2022/10/27 08:48:23;;;;;;;;;9.33;7.00;;;;;19.03;60.84;101503.53;6216628;22;45373;-76
2022/10/27 08:50:49;;;;;;;;;6.00;5.67;;;;;19.08;60.58;101503.38;6216456;22;45221;-75
2022/10/27 08:53:22;;;;;;;;;7.33;7.33;;;;;19.20;60.51;101520.88;6216770;22;45164;-74
2022/10/27 08:55:47;;;;;;;;;7.00;6.67;;;;;19.29;59.95;101526.81;6186214;22;45589;-75
2022/10/27 08:58:28;;;;;;;;;6.33;5.33;;;;;19.31;59.71;101511.63;6213981;22;46723;-76
2022/10/27 09:00:58;;;;;;;;;5.67;5.67;;;;;19.45;59.52;101513.91;6216138;22;45327;-76
2022/10/27 09:04:02;;;;;;;;;9.33;7.00;;;;;19.59;59.85;101506.41;6216372;22;45294;-76
2022/10/27 09:06:31;;;;;;;;;8.67;7.00;;;;;19.68;59.76;101513.28;6063683;23;45279;-75
2022/10/27 09:09:30;;;;;;;;;10.33;7.00;;;;;19.76;59.31;101519.28;6189315;22;45487;-75
2022/10/27 09:12:22;;;;;;;;;10.00;9.00;;;;;19.85;58.96;101503.91;6215018;22;45597;-76
2022/10/27 09:15:01;;;;;;;;;6.00;5.00;;;;;20.01;58.67;101516.75;6216211;22;45422;-76
2022/10/27 09:17:40;;;;;;;;;7.33;7.33;;;;;20.04;58.90;101522.00;6215989;22;45573;-75
2022/10/27 09:20:40;;;;;;;;;9.00;8.33;;;;;20.15;58.43;101518.97;6188860;22;46801;-75
2022/10/27 09:23:17;;;;;;;;;4.67;3.00;;;;;20.10;58.42;101498.66;6187850;22;45223;-76
2022/10/27 09:25:48;;;;;;;;;6.00;5.00;;;;;20.21;58.11;101525.97;6189504;22;45239;-75
2022/10/27 09:28:34;;;;;;;;;8.00;7.00;;;;;20.25;58.19;101517.78;6215893;22;45673;-76
2022/10/27 09:31:02;;;;;;;;;5.33;3.67;;;;;20.31;58.03;101522.06;6215528;22;45293;-74
2022/10/27 09:33:31;;;;;;;;;5.33;5.00;;;;;20.43;57.95;101540.41;6216148;22;45218;-76
2022/10/27 09:35:57;;;;;;;;;7.33;6.33;;;;;20.40;57.30;101527.13;6214859;22;45381;-76
2022/10/27 09:38:24;;;;;;;;;9.00;7.67;;;;;20.47;57.56;101531.38;6215881;22;45378;-77
2022/10/27 09:40:51;;;;;;;;;7.00;5.67;;;;;20.61;57.28;101538.97;6215543;22;45368;-75
2022/10/27 09:43:19;;;;;;;;;10.67;8.33;;;;;20.64;57.42;101520.13;6216204;22;45260;-76
2022/10/27 09:45:54;;;;;;;;;9.00;5.67;;;;;20.76;56.88;101536.69;6215676;22;45227;-76
2022/10/27 09:48:23;;;;;;;;;9.00;7.67;;;;;20.87;56.89;101524.69;6188566;22;45206;-75
2022/10/27 09:51:03;;;;;;;;;5.33;5.00;;;;;21.03;56.50;101537.56;6215170;22;46245;-76
2022/10/27 09:53:38;;;;;;;;;6.67;6.33;;;;;21.12;56.62;101534.59;6216678;22;45150;-75
2022/10/27 09:56:05;;;;;;;;;7.33;6.33;;;;;21.18;56.45;101520.09;6188946;22;45391;-76
2022/10/27 09:58:46;;;;;;;;;6.00;4.67;;;;;21.30;55.95;101507.16;6215897;22;45391;-77
2022/10/27 10:01:11;;;;;;;;;7.00;6.67;;;;;21.35;56.27;101507.81;6215874;22;45603;-75
2022/10/27 10:03:38;;;;;;;;;8.67;5.67;;;;;21.43;55.53;101490.63;6216186;22;45313;-76
2022/10/27 10:06:29;;;;;;;;;8.33;6.00;;;;;21.49;55.80;101490.41;6188381;22;45298;-76
2022/10/27 10:09:04;;;;;;;;;;;;;;;;;;;;;
2022/10/27 10:11:40;;;;;;;;;;;;;;;;;;;;;
2022/10/27 10:14:48;;;;;;;;;;;;;;;;;;;;;
2022/10/27 10:17:22;;;;;;;;;9.33;6.00;;;;;21.80;54.28;101515.13;6193971;22;68788;-77
2022/10/27 10:20:04;;;;;;;;;11.67;7.33;;;;;21.85;54.70;101514.09;6188556;22;45431;-76
2022/10/27 10:25:48;;;;;;;;;;;;;;;;;;;;;
2022/10/27 10:28:53;;;;;;;;;;;;;;;;;;;;;
2022/10/27 10:31:40;;;;;;;;;;;;;;;;;;;;;
2022/10/27 10:34:38;;;;;;;;;;;;;;;;;;;;;
2022/10/27 10:37:45;;;;;;;;;;;;;;;;;;;;;
2022/10/27 10:40:16;;;;;;;;;8.00;8.00;;;;;22.67;53.83;101544.81;6214838;22;67263;-75
2022/10/27 10:42:48;;;;;;;;;5.33;5.33;;;;;22.76;53.07;101522.06;6187986;22;45656;-75
2022/10/27 10:45:34;;;;;;;;;;;;;;;;;;;;;
2022/10/27 10:48:25;;;;;;;;;;;;;;;;;;;;;
2022/10/27 10:50:52;;;;;;;;;9.33;9.33;;;;;23.30;52.19;101526.03;6215193;22;67293;-76
2022/10/27 10:53:28;;;;;;;;;2.33;1.67;;;;;23.44;51.25;101509.28;6217355;22;45111;-75
2022/10/27 10:55:57;;;;;;;;;5.67;5.00;;;;;23.40;50.85;101508.53;6217004;22;45562;-74
2022/10/27 10:58:26;;;;;;;;;7.33;6.00;;;;;23.40;50.53;101519.28;6216246;22;45440;-76
2022/10/27 11:01:13;;;;;;;;;;;;;;;;;;;;;
2022/10/27 11:03:43;;;;;;;;;5.67;5.33;;;;;23.33;50.67;101534.84;6215501;22;71451;-74
2022/10/27 11:06:18;;;;;;;;;10.00;8.00;;;;;23.33;50.83;101501.69;6217609;22;45360;-73
2022/10/27 11:09:01;;;;;;;;;7.00;6.00;;;;;23.36;50.72;101522.19;6190378;22;45328;-75
2022/10/27 11:11:42;;;;;;;;;;;;;;;;;;;;;
2022/10/27 11:14:25;;;;;;;;;;;;;;;;;;;;;
2022/10/27 11:17:07;;;;;;;;;;;;;;;;;;;;;
2022/10/27 11:19:44;;;;;;;;;6.00;5.67;;;;;24.32;49.87;101509.59;6214249;22;72141;-74
2022/10/27 11:22:22;;;;;;;;;7.67;6.67;;;;;25.60;49.09;101503.09;6188525;22;45505;-74
2022/10/27 11:25:18;;;;;;;;;6.33;6.00;;;;;27.59;47.30;101488.72;6187363;22;45388;-74
2022/10/27 11:27:59;;;;;;;;;6.00;6.00;;;;;29.51;44.92;101491.25;6186957;22;46166;-74
2022/10/27 11:30:27;;;;;;;;;4.00;4.00;;;;;31.55;42.23;101498.47;6215090;22;45307;-75
2022/10/27 11:33:07;;;;;;;;;6.00;6.00;;;;;33.30;38.72;101500.16;6187879;22;45333;-74
2022/10/27 11:35:44;;;;;;;;;4.67;4.67;;;;;33.81;36.76;101488.38;6186133;22;45474;-75
2022/10/27 11:38:21;;;;;;;;;6.00;6.00;;;;;32.92;36.01;101485.25;6214582;22;45460;-74
2022/10/27 11:41:30;;;;;;;;;;;;;;;;;;;;;
2022/10/27 11:44:18;;;;;;;;;;;;;;;;;;;;;
2022/10/27 11:47:06;;;;;;;;;5.33;5.33;;;;;30.01;37.35;101492.16;6213919;22;72670;-75
2022/10/27 11:49:48;;;;;;;;;5.00;5.00;;;;;29.68;37.79;101490.94;6187571;22;47945;-75
2022/10/27 11:52:28;;;;;;;;;5.33;5.33;;;;;29.56;37.97;101481.78;6187665;22;45379;-74
2022/10/27 11:54:57;;;;;;;;;8.67;7.67;;;;;29.45;38.80;101484.41;6214746;22;45284;-75
2022/10/27 11:57:48;;;;;;;;;5.67;5.33;;;;;29.36;38.33;101463.38;6212923;22;45440;-75
2022/10/27 12:00:30;;;;;;;;;6.67;6.67;;;;;29.34;38.21;101468.03;6187206;22;47044;-74
2022/10/27 12:03:04;;;;;;;;;5.67;5.67;;;;;29.41;38.63;101459.34;6212499;22;45418;-74
2022/10/27 12:06:08;;;;;;;;;;;;;;;;;;;;;
2022/10/27 12:08:58;;;;;;;;;6.33;5.67;;;;;29.51;38.47;101470.44;6213921;22;71874;-75
2022/10/27 12:11:36;;;;;;;;;4.00;4.00;;;;;29.53;38.00;101470.31;6185610;22;47142;-75
2022/10/27 12:14:30;;;;;;;;;;;;;;;;;;;;;
2022/10/27 12:17:08;;;;;;;;;6.67;6.33;;;;;29.67;38.05;101470.19;6213681;22;69291;-74